createdAt,value
2018-06-17T00:00:07.961Z,9.43
2018-06-17T00:02:36.868Z,9.53
2018-06-17T00:05:05.493Z,9.97
2018-06-17T00:07:34.121Z,9.73
2018-06-17T00:10:03.739Z,9.33
2018-06-17T00:12:35.552Z,9.57
2018-06-17T00:15:04.253Z,10.33
2018-06-17T00:17:32.931Z,10.03
2018-06-17T00:20:01.525Z,10.33
2018-06-17T00:22:30.735Z,12.30
2018-06-17T00:24:59.466Z,10.60
2018-06-17T00:27:28.270Z,9.77
2018-06-17T00:29:57.467Z,9.67
2018-06-17T00:32:26.165Z,10.20
2018-06-17T00:34:54.849Z,10.13
2018-06-17T00:37:23.506Z,9.97
2018-06-17T00:39:52.254Z,9.93
2018-06-17T00:42:20.783Z,9.27
2018-06-17T00:44:49.485Z,10.13
2018-06-17T00:47:18.106Z,9.40
2018-06-17T00:49:46.776Z,9.17
2018-06-17T00:52:15.373Z,9.03
2018-06-17T00:54:44.233Z,9.00
2018-06-17T00:57:25.111Z,8.77
2018-06-17T00:59:53.718Z,9.10
2018-06-17T01:02:22.338Z,10.60
2018-06-17T01:04:50.931Z,9.30
2018-06-17T01:07:19.594Z,9.20
2018-06-17T01:09:47.873Z,9.67
2018-06-17T01:12:16.613Z,8.43
2018-06-17T01:14:45.320Z,9.40
2018-06-17T01:17:13.640Z,8.80
2018-06-17T01:19:42.447Z,9.03
2018-06-17T01:22:11.033Z,8.87
2018-06-17T01:24:39.689Z,9.33
2018-06-17T01:27:08.349Z,9.20
2018-06-17T01:29:36.740Z,8.83
2018-06-17T01:32:05.747Z,9.23
2018-06-17T01:34:34.445Z,10.63
2018-06-17T01:37:03.245Z,8.90
2018-06-17T01:39:31.994Z,9.23
2018-06-17T01:42:00.533Z,9.03
2018-06-17T01:44:29.200Z,9.17
2018-06-17T01:46:58.082Z,8.90
2018-06-17T01:49:26.997Z,9.03
2018-06-17T01:51:55.713Z,10.10
2018-06-17T01:54:24.917Z,9.97
2018-06-17T01:56:53.163Z,9.50
2018-06-17T01:59:21.997Z,9.53
2018-06-17T02:01:51.453Z,9.27
2018-06-17T02:04:25.220Z,8.47
2018-06-17T02:06:59.211Z,8.97
2018-06-17T02:09:33.108Z,9.23
2018-06-17T02:12:07.154Z,10.10
2018-06-17T02:14:41.091Z,9.50
2018-06-17T02:17:10.361Z,9.50
2018-06-17T02:19:38.986Z,9.43
2018-06-17T02:22:07.632Z,10.00
2018-06-17T02:24:36.291Z,9.67
2018-06-17T02:27:04.894Z,9.67
2018-06-17T02:29:33.676Z,9.80
2018-06-17T02:32:02.313Z,9.13
2018-06-17T02:34:30.919Z,9.73
2018-06-17T02:36:59.819Z,9.77
2018-06-17T02:39:28.452Z,9.57
2018-06-17T02:41:57.008Z,10.47
2018-06-17T02:44:25.582Z,9.37
2018-06-17T02:46:59.590Z,9.70
2018-06-17T02:49:34.293Z,10.30
2018-06-17T02:52:08.325Z,9.40
2018-06-17T02:54:42.104Z,9.87
2018-06-17T02:57:12.666Z,9.73
2018-06-17T02:59:42.577Z,9.67
2018-06-17T03:02:11.478Z,9.23
2018-06-17T03:04:40.022Z,10.47
2018-06-17T03:07:09.566Z,10.03
2018-06-17T03:09:38.265Z,10.00
2018-06-17T03:12:07.126Z,10.37
2018-06-17T03:14:35.801Z,10.53
2018-06-17T03:17:04.474Z,10.10
2018-06-17T03:19:33.180Z,10.67
2018-06-17T03:22:01.728Z,10.00
2018-06-17T03:24:35.472Z,10.60
2018-06-17T03:27:09.533Z,10.30
2018-06-17T03:29:43.511Z,10.43
2018-06-17T03:32:17.337Z,10.70
2018-06-17T03:34:47.993Z,11.60
2018-06-17T03:37:16.261Z,10.90
2018-06-17T03:39:44.746Z,10.83
2018-06-17T03:42:13.067Z,10.70
2018-06-17T03:44:41.578Z,9.73
2018-06-17T03:47:10.132Z,11.20
2018-06-17T03:49:39.056Z,10.80
2018-06-17T03:52:07.833Z,11.07
2018-06-17T03:54:36.469Z,10.50
2018-06-17T03:57:05.132Z,11.03
2018-06-17T03:59:33.587Z,11.07
2018-06-17T04:02:02.140Z,10.97
2018-06-17T04:04:34.940Z,11.17
2018-06-17T04:07:03.640Z,10.90
2018-06-17T04:09:32.216Z,11.17
2018-06-17T04:12:00.847Z,9.97
2018-06-17T04:14:29.460Z,11.03
2018-06-17T04:17:02.713Z,11.93
2018-06-17T04:19:31.337Z,9.93
2018-06-17T04:21:59.906Z,11.00
2018-06-17T04:24:28.451Z,11.10
2018-06-17T04:26:57.185Z,10.60
2018-06-17T04:29:25.828Z,10.60
2018-06-17T04:31:54.455Z,9.87
2018-06-17T04:34:22.984Z,10.80
2018-06-17T04:36:51.209Z,10.50
2018-06-17T04:39:19.786Z,10.80
2018-06-17T04:41:48.432Z,10.90
2018-06-17T04:44:17.157Z,10.70
2018-06-17T04:46:45.768Z,11.37
2018-06-17T04:49:14.562Z,10.80
2018-06-17T04:51:43.190Z,10.17
2018-06-17T04:54:12.398Z,10.70
2018-06-17T04:56:40.978Z,10.20
2018-06-17T04:59:09.620Z,10.10
2018-06-17T05:01:38.377Z,10.77
2018-06-17T05:04:07.381Z,10.57
2018-06-17T05:06:36.062Z,10.30
2018-06-17T05:09:06.826Z,11.47
2018-06-17T05:11:35.775Z,11.97
2018-06-17T05:14:04.550Z,10.73
2018-06-17T05:16:33.340Z,10.87
2018-06-17T05:19:02.104Z,11.40
2018-06-17T05:21:30.744Z,11.67
2018-06-17T05:23:59.340Z,11.73
2018-06-17T05:26:27.885Z,11.90
2018-06-17T05:28:56.547Z,11.40
2018-06-17T05:31:25.043Z,11.07
2018-06-17T05:33:54.127Z,11.60
2018-06-17T05:36:22.419Z,11.13
2018-06-17T05:38:51.095Z,10.90
2018-06-17T05:41:19.705Z,11.70
2018-06-17T05:43:48.934Z,11.57
2018-06-17T05:46:17.687Z,11.10
2018-06-17T05:48:46.255Z,10.23
2018-06-17T05:51:14.832Z,10.30
2018-06-17T05:53:43.340Z,10.80
2018-06-17T05:56:12.412Z,10.40
2018-06-17T05:58:41.070Z,10.07
2018-06-17T06:01:09.804Z,10.53
2018-06-17T06:03:38.463Z,9.63
2018-06-17T06:06:07.265Z,8.90
2018-06-17T06:08:36.375Z,8.83
2018-06-17T06:11:05.262Z,8.80
2018-06-17T06:13:35.079Z,9.40
2018-06-17T06:16:04.171Z,9.33
2018-06-17T06:18:32.830Z,8.57
2018-06-17T06:21:02.134Z,8.93
2018-06-17T06:23:30.732Z,8.67
2018-06-17T06:25:59.354Z,7.50
2018-06-17T06:28:28.334Z,8.03
2018-06-17T06:30:56.803Z,8.07
2018-06-17T06:33:25.135Z,7.73
2018-06-17T06:35:53.789Z,7.30
2018-06-17T06:38:22.376Z,7.57
2018-06-17T06:40:51.016Z,7.57
2018-06-17T06:43:19.943Z,7.83
2018-06-17T06:45:48.630Z,6.90
2018-06-17T06:48:17.719Z,6.80
2018-06-17T06:50:46.033Z,7.00
2018-06-17T06:53:14.630Z,7.30
2018-06-17T06:55:43.761Z,6.70
2018-06-17T06:58:12.477Z,6.43
2018-06-17T07:00:41.053Z,6.87
2018-06-17T07:03:14.898Z,6.73
2018-06-17T07:05:54.781Z,6.33
2018-06-17T07:08:34.825Z,6.70
2018-06-17T07:11:03.421Z,6.80
2018-06-17T07:13:31.996Z,6.90
2018-06-17T07:16:11.787Z,6.97
2018-06-17T07:18:41.489Z,6.77
2018-06-17T07:21:10.580Z,7.40
2018-06-17T07:23:39.855Z,6.33
2018-06-17T07:26:22.674Z,6.47
2018-06-17T07:28:57.069Z,7.10
2018-06-17T07:31:25.825Z,6.50
2018-06-17T07:33:54.469Z,6.40
2018-06-17T07:36:22.797Z,6.63
2018-06-17T07:38:51.609Z,7.17
2018-06-17T07:41:20.276Z,6.93
2018-06-17T07:43:48.980Z,6.67
2018-06-17T07:46:17.762Z,7.23
2018-06-17T07:49:55.676Z,6.97
2018-06-17T07:52:30.846Z,6.57
2018-06-17T07:54:59.479Z,6.43
2018-06-17T07:57:32.353Z,6.47
2018-06-17T08:00:01.475Z,6.67
2018-06-17T08:02:30.129Z,6.70
2018-06-17T08:04:59.736Z,6.30
2018-06-17T08:07:28.434Z,6.50
2018-06-17T08:09:57.115Z,5.80
2018-06-17T08:12:26.850Z,6.20
2018-06-17T08:14:55.514Z,5.97
2018-06-17T08:17:26.780Z,5.90
2018-06-17T08:19:55.476Z,5.50
2018-06-17T08:22:24.188Z,6.47
2018-06-17T08:24:53.530Z,6.40
2018-06-17T08:27:22.105Z,6.00
2018-06-17T08:29:51.214Z,6.30
2018-06-17T08:32:21.782Z,6.73
2018-06-17T08:34:50.474Z,6.30
2018-06-17T08:37:19.207Z,6.33
2018-06-17T08:39:47.888Z,5.70
2018-06-17T08:42:16.530Z,5.60
2018-06-17T08:44:45.191Z,6.00
2018-06-17T08:47:13.856Z,6.03
2018-06-17T08:49:42.525Z,5.10
2018-06-17T08:52:12.027Z,4.93
2018-06-17T08:54:41.527Z,4.97
2018-06-17T08:57:14.572Z,5.30
2018-06-17T08:59:51.199Z,5.17
2018-06-17T09:02:22.098Z,4.63
2018-06-17T09:04:50.807Z,5.37
2018-06-17T09:07:20.245Z,6.13
2018-06-17T09:09:48.530Z,5.40
2018-06-17T09:12:17.879Z,5.33
2018-06-17T09:14:47.105Z,5.90
2018-06-17T09:17:15.862Z,5.63
2018-06-17T09:19:44.608Z,6.07
2018-06-17T09:22:13.180Z,5.90
2018-06-17T09:24:41.485Z,5.20
2018-06-17T09:27:10.229Z,5.40
2018-06-17T09:29:38.580Z,6.37
2018-06-17T09:32:07.429Z,5.73
2018-06-17T09:34:35.990Z,5.60
2018-06-17T09:37:04.646Z,4.80
2018-06-17T09:39:33.451Z,5.07
2018-06-17T09:42:02.140Z,4.80
2018-06-17T09:44:31.151Z,4.77
2018-06-17T09:46:59.835Z,4.27
2018-06-17T09:49:28.271Z,4.13
2018-06-17T09:51:56.857Z,4.13
2018-06-17T09:54:25.663Z,4.20
2018-06-17T09:56:54.422Z,4.23
2018-06-17T09:59:23.047Z,4.47
2018-06-17T10:01:51.501Z,4.53
2018-06-17T10:04:20.126Z,4.20
2018-06-17T10:06:48.470Z,4.60
2018-06-17T10:09:17.157Z,4.20
2018-06-17T10:11:45.865Z,3.90
2018-06-17T10:14:14.228Z,3.97
2018-06-17T10:16:42.975Z,4.40
2018-06-17T10:19:11.718Z,4.67
2018-06-17T10:21:39.990Z,3.90
2018-06-17T10:24:08.420Z,3.97
2018-06-17T10:26:38.067Z,4.43
2018-06-17T10:29:06.257Z,4.80
2018-06-17T10:31:34.663Z,4.57
2018-06-17T10:34:04.096Z,4.40
2018-06-17T10:36:33.079Z,4.17
2018-06-17T10:39:06.475Z,3.57
2018-06-17T10:41:39.911Z,4.00
2018-06-17T10:44:11.792Z,3.50
2018-06-17T10:46:40.783Z,3.80
2018-06-17T10:49:11.071Z,3.10
2018-06-17T10:51:39.866Z,3.43
2018-06-17T10:54:08.617Z,3.63
2018-06-17T10:56:37.637Z,3.50
2018-06-17T10:59:06.684Z,3.37
2018-06-17T11:01:35.287Z,3.53
2018-06-17T11:04:03.910Z,3.60
2018-06-17T11:06:32.146Z,3.10
2018-06-17T11:09:00.832Z,3.33
2018-06-17T11:11:29.418Z,3.23
2018-06-17T11:13:58.034Z,3.27
2018-06-17T11:16:26.634Z,3.50
2018-06-17T11:18:55.542Z,3.70
2018-06-17T11:21:24.157Z,4.10
2018-06-17T11:23:53.001Z,3.10
2018-06-17T11:26:21.589Z,3.50
2018-06-17T11:28:50.440Z,3.30
2018-06-17T11:31:19.047Z,3.50
2018-06-17T11:33:47.291Z,3.80
2018-06-17T11:36:15.981Z,3.50
2018-06-17T11:38:45.129Z,3.30
2018-06-17T11:41:13.748Z,3.73
2018-06-17T11:43:42.424Z,3.83
2018-06-17T11:46:11.159Z,4.03
2018-06-17T11:48:39.624Z,3.50
2018-06-17T11:51:08.219Z,3.73
2018-06-17T11:53:36.559Z,4.33
2018-06-17T11:56:05.384Z,3.97
2018-06-17T11:58:34.210Z,4.47
2018-06-17T12:01:03.171Z,3.87
2018-06-17T12:03:31.931Z,4.33
2018-06-17T12:06:01.184Z,4.27
2018-06-17T12:08:31.537Z,3.90
2018-06-17T12:11:00.314Z,3.90
2018-06-17T12:13:29.011Z,3.97
2018-06-17T12:15:58.958Z,4.33
2018-06-17T12:18:27.628Z,3.70
2018-06-17T12:20:56.429Z,4.03
2018-06-17T12:23:25.058Z,3.90
2018-06-17T12:25:54.017Z,3.77
2018-06-17T12:28:22.826Z,4.17
2018-06-17T12:30:51.384Z,3.80
2018-06-17T12:33:20.108Z,3.70
2018-06-17T12:35:48.712Z,3.57
2018-06-17T12:38:17.919Z,3.80
2018-06-17T12:40:46.676Z,3.80
2018-06-17T12:43:16.049Z,3.87
2018-06-17T12:45:44.854Z,3.77
2018-06-17T12:48:13.454Z,3.53
2018-06-17T12:50:42.165Z,3.70
2018-06-17T12:53:10.737Z,3.70
2018-06-17T12:55:39.328Z,4.23
2018-06-17T12:58:07.934Z,3.40
2018-06-17T13:00:37.148Z,3.97
2018-06-17T13:03:06.959Z,3.73
2018-06-17T13:05:36.860Z,4.10
2018-06-17T13:08:06.607Z,4.00
2018-06-17T13:10:35.356Z,4.47
2018-06-17T13:13:03.669Z,4.07
2018-06-17T13:15:32.318Z,4.10
2018-06-17T13:18:00.992Z,3.93
2018-06-17T13:20:29.586Z,3.97
2018-06-17T13:22:58.259Z,4.07
2018-06-17T13:25:27.016Z,4.00
2018-06-17T13:27:55.726Z,4.50
2018-06-17T13:30:24.278Z,4.33
2018-06-17T13:32:52.867Z,4.10
2018-06-17T13:35:21.469Z,4.43
2018-06-17T13:37:50.693Z,4.00
2018-06-17T13:40:19.934Z,3.80
2018-06-17T13:42:48.590Z,3.80
2018-06-17T13:45:17.445Z,3.93
2018-06-17T13:47:46.102Z,3.63
2018-06-17T13:50:14.809Z,3.37
2018-06-17T13:52:43.431Z,3.50
2018-06-17T13:55:12.163Z,3.43
2018-06-17T13:57:41.127Z,3.87
2018-06-17T14:00:10.397Z,3.83
2018-06-17T14:02:38.862Z,3.80
2018-06-17T14:05:07.342Z,4.10
2018-06-17T14:07:35.619Z,4.00
2018-06-17T14:10:04.933Z,4.20
2018-06-17T14:12:34.048Z,3.67
2018-06-17T14:15:04.213Z,3.70
2018-06-17T14:17:32.805Z,4.30
2018-06-17T14:20:01.531Z,4.23
2018-06-17T14:22:32.651Z,3.90
2018-06-17T14:25:01.005Z,3.97
2018-06-17T14:27:29.731Z,3.90
2018-06-17T14:29:58.422Z,3.90
2018-06-17T14:32:27.910Z,3.43
2018-06-17T14:34:56.543Z,3.60
2018-06-17T14:37:25.176Z,3.53
2018-06-17T14:39:53.555Z,3.37
2018-06-17T14:42:27.366Z,4.70
2018-06-17T14:45:01.933Z,3.60
2018-06-17T14:47:36.045Z,3.77
2018-06-17T14:50:10.275Z,4.20
2018-06-17T14:52:44.254Z,4.60
2018-06-17T14:55:12.884Z,5.13
2018-06-17T14:57:42.134Z,4.83
2018-06-17T15:00:10.803Z,4.20
2018-06-17T15:02:39.481Z,3.47
2018-06-17T15:05:07.742Z,3.30
2018-06-17T15:07:36.071Z,3.20
2018-06-17T15:10:05.474Z,2.90
2018-06-17T15:12:34.156Z,2.93
2018-06-17T15:15:02.846Z,2.87
2018-06-17T15:17:32.092Z,2.60
2018-06-17T15:20:01.749Z,2.37
2018-06-17T15:22:31.947Z,2.20
2018-06-17T15:25:02.100Z,2.60
2018-06-17T15:27:31.489Z,3.37
2018-06-17T15:30:00.506Z,2.67
2018-06-17T15:32:34.612Z,2.70
2018-06-17T15:35:08.278Z,2.30
2018-06-17T15:37:42.650Z,2.37
2018-06-17T15:40:14.093Z,2.13
2018-06-17T15:42:44.563Z,2.20
2018-06-17T15:45:14.641Z,1.80
2018-06-17T15:47:44.128Z,1.97
2018-06-17T15:50:14.380Z,2.13
2018-06-17T15:52:43.332Z,2.20
2018-06-17T15:55:13.009Z,2.00
2018-06-17T15:57:41.946Z,1.97
2018-06-17T16:00:10.550Z,1.87
2018-06-17T16:02:39.946Z,2.00
2018-06-17T16:05:08.241Z,2.20
2018-06-17T16:07:40.978Z,2.40
2018-06-17T16:10:09.690Z,1.93
2018-06-17T16:12:44.684Z,2.03
2018-06-17T16:15:18.889Z,1.70
2018-06-17T16:17:53.104Z,1.80
2018-06-17T16:20:27.769Z,1.90
2018-06-17T16:22:56.180Z,1.83
2018-06-17T16:25:26.133Z,1.70
2018-06-17T16:27:58.133Z,1.70
2018-06-17T16:30:26.425Z,2.10
2018-06-17T16:32:55.060Z,1.90
2018-06-17T16:35:23.851Z,1.70
2018-06-17T16:37:52.710Z,1.90
2018-06-17T16:40:21.714Z,1.70
2018-06-17T16:42:50.929Z,1.60
2018-06-17T16:45:20.027Z,1.60
2018-06-17T16:47:50.267Z,1.40
2018-06-17T16:50:19.063Z,2.10
2018-06-17T16:52:52.968Z,1.77
2018-06-17T16:55:27.212Z,1.90
2018-06-17T16:58:01.984Z,2.10
2018-06-17T17:00:31.004Z,1.80
2018-06-17T17:03:00.205Z,1.90
2018-06-17T17:05:29.364Z,2.70
2018-06-17T17:07:58.142Z,2.47
2018-06-17T17:10:27.355Z,1.80
2018-06-17T17:12:56.273Z,1.60
2018-06-17T17:15:24.682Z,1.57
2018-06-17T17:17:54.411Z,1.57
2018-06-17T17:20:25.364Z,1.77
2018-06-17T17:22:54.112Z,1.70
2018-06-17T17:25:23.578Z,1.50
2018-06-17T17:27:51.977Z,1.27
2018-06-17T17:30:21.414Z,1.60
2018-06-17T17:32:56.051Z,1.90
2018-06-17T17:35:30.061Z,1.63
2018-06-17T17:38:04.204Z,1.70
2018-06-17T17:40:42.616Z,1.63
2018-06-17T17:43:11.377Z,1.87
2018-06-17T17:45:45.371Z,1.63
2018-06-17T17:48:15.556Z,1.80
2018-06-17T17:50:44.184Z,1.53
2018-06-17T17:53:12.963Z,1.77
2018-06-17T17:55:42.008Z,1.70
2018-06-17T17:58:11.311Z,2.00
2018-06-17T18:00:39.775Z,2.00
2018-06-17T18:03:08.461Z,1.60
2018-06-17T18:05:38.194Z,1.77
2018-06-17T18:08:07.853Z,1.97
2018-06-17T18:10:36.347Z,1.60
2018-06-17T18:13:04.980Z,1.80
2018-06-17T18:15:35.164Z,1.90
2018-06-17T18:18:03.512Z,1.70
2018-06-17T18:20:32.272Z,1.70
2018-06-17T18:23:00.981Z,1.60
2018-06-17T18:25:35.056Z,2.10
2018-06-17T18:28:09.767Z,1.90
2018-06-17T18:30:43.486Z,2.10
2018-06-17T18:33:17.631Z,1.80
2018-06-17T18:35:52.384Z,1.80
2018-06-17T18:38:20.756Z,1.73
2018-06-17T18:40:49.621Z,2.20
2018-06-17T18:43:18.552Z,2.10
2018-06-17T18:45:47.832Z,1.97
2018-06-17T18:48:16.664Z,1.93
2018-06-17T18:50:45.349Z,2.00
2018-06-17T18:53:18.930Z,2.40
2018-06-17T18:55:47.265Z,1.87
2018-06-17T18:58:15.874Z,1.70
2018-06-17T19:00:44.547Z,2.03
2018-06-17T19:03:13.705Z,1.90
2018-06-17T19:05:47.643Z,1.73
2018-06-17T19:08:22.268Z,1.90
2018-06-17T19:13:43.610Z,1.87
2018-06-17T19:16:18.215Z,2.10
2018-06-17T19:18:48.681Z,1.70
2018-06-17T19:21:18.975Z,1.90
2018-06-17T19:23:50.951Z,2.20
2018-06-17T19:26:20.257Z,2.03
2018-06-17T19:28:49.754Z,1.70
2018-06-17T19:31:20.718Z,2.00
2018-06-17T19:33:52.152Z,1.83
2018-06-17T19:36:21.156Z,2.10
2018-06-17T19:38:50.755Z,2.33
2018-06-17T19:41:20.344Z,2.43
2018-06-17T19:43:49.812Z,2.23
2018-06-17T19:46:21.672Z,2.07
2018-06-17T19:48:54.321Z,2.70
2018-06-17T19:51:29.401Z,3.00
2018-06-17T19:54:04.275Z,2.80
2018-06-17T19:56:39.270Z,2.07
2018-06-17T19:59:14.511Z,2.33
2018-06-17T20:01:43.878Z,2.07
2018-06-17T20:04:12.594Z,2.17
2018-06-17T20:06:42.049Z,1.90
2018-06-17T20:09:12.013Z,2.20
2018-06-17T20:11:41.194Z,2.10
2018-06-17T20:14:10.629Z,1.77
2018-06-17T20:16:39.318Z,2.00
2018-06-17T20:19:08.315Z,2.40
2018-06-17T20:21:37.940Z,2.00
2018-06-17T20:24:06.728Z,2.00
2018-06-17T20:26:35.354Z,1.90
2018-06-17T20:29:04.010Z,1.83
2018-06-17T20:31:32.960Z,2.47
2018-06-17T20:34:07.112Z,1.97
2018-06-17T20:36:40.828Z,2.13
2018-06-17T20:39:15.092Z,2.20
2018-06-17T20:41:49.752Z,2.43
2018-06-17T20:44:18.169Z,1.97
2018-06-17T20:46:49.758Z,2.30
2018-06-17T20:49:18.518Z,1.90
2018-06-17T20:51:47.171Z,2.30
2018-06-17T20:54:15.814Z,3.87
2018-06-17T20:56:46.189Z,2.47
2018-06-17T20:59:14.815Z,2.20
2018-06-17T21:01:43.501Z,2.67
2018-06-17T21:04:12.126Z,2.40
2018-06-17T21:06:41.496Z,2.80
2018-06-17T21:09:11.186Z,2.27
2018-06-17T21:11:39.843Z,2.80
2018-06-17T21:14:08.446Z,2.07
2018-06-17T21:16:37.317Z,2.43
2018-06-17T21:19:11.347Z,2.00
2018-06-17T21:21:45.508Z,2.10
2018-06-17T21:24:19.702Z,2.07
2018-06-17T21:26:53.729Z,2.40
2018-06-17T21:29:22.071Z,2.47
2018-06-17T21:31:50.722Z,2.50
2018-06-17T21:34:19.368Z,2.20
2018-06-17T21:36:48.331Z,2.47
2018-06-17T21:39:17.133Z,2.43
2018-06-17T21:41:45.688Z,2.27
2018-06-17T21:44:14.862Z,2.50
2018-06-17T21:46:43.767Z,2.40
2018-06-17T21:49:14.841Z,2.50
2018-06-17T21:51:43.602Z,2.40
2018-06-17T21:54:12.492Z,2.70
2018-06-17T21:56:42.511Z,2.90
2018-06-17T21:59:11.097Z,2.43
2018-06-17T22:01:40.840Z,2.50
2018-06-17T22:04:15.657Z,2.43
2018-06-17T22:06:44.304Z,2.90
2018-06-17T22:09:19.347Z,2.60
2018-06-17T22:11:53.224Z,2.60
2018-06-17T22:14:27.009Z,2.87
2018-06-17T22:17:01.217Z,2.97
2018-06-17T22:19:29.500Z,2.30
2018-06-17T22:21:57.796Z,2.30
2018-06-17T22:24:26.365Z,2.57
2018-06-17T22:26:54.642Z,2.43
2018-06-17T22:29:23.276Z,2.47
2018-06-17T22:31:51.893Z,1.90
2018-06-17T22:34:20.536Z,2.57
2018-06-17T22:36:49.181Z,2.50
2018-06-17T22:39:17.855Z,2.20
2018-06-17T22:41:46.589Z,2.40
2018-06-17T22:44:15.172Z,2.30
2018-06-17T22:46:43.681Z,2.70
2018-06-17T22:49:12.471Z,2.10
2018-06-17T22:51:41.191Z,2.20
2018-06-17T22:54:21.265Z,1.93
2018-06-17T22:56:55.370Z,2.33
2018-06-17T22:59:29.225Z,2.07
2018-06-17T23:02:03.224Z,2.40
2018-06-17T23:04:37.921Z,2.03
2018-06-17T23:07:11.948Z,2.10
2018-06-17T23:09:42.440Z,2.40
2018-06-17T23:12:11.049Z,2.40
2018-06-17T23:14:39.740Z,2.30
2018-06-17T23:17:08.358Z,2.30
2018-06-17T23:19:36.999Z,2.43
2018-06-17T23:22:05.775Z,2.23
2018-06-17T23:24:34.312Z,2.10
2018-06-17T23:27:03.434Z,2.23
2018-06-17T23:29:32.029Z,1.90
2018-06-17T23:32:00.691Z,2.40
2018-06-17T23:34:28.970Z,2.50
2018-06-17T23:36:57.257Z,2.10
2018-06-17T23:39:25.903Z,2.10
2018-06-17T23:41:54.724Z,2.10
2018-06-17T23:44:22.959Z,2.03
2018-06-17T23:46:56.952Z,2.20
2018-06-17T23:49:31.054Z,2.00
2018-06-17T23:52:05.588Z,2.43
2018-06-17T23:55:40.606Z,2.30
2018-06-17T23:58:09.296Z,1.93
